sensor_id;sensor_type;location;lat;lon;timestamp;temperature;humidity
56172;DHT22;42052;41.634;-0.946;2024-02-04T00:00:15;21.10;49.80
56172;DHT22;42052;41.634;-0.946;2024-02-04T00:02:43;21.10;49.70
56172;DHT22;42052;41.634;-0.946;2024-02-04T00:05:09;21.10;49.70
56172;DHT22;42052;41.634;-0.946;2024-02-04T00:07:36;21.10;49.70
56172;DHT22;42052;41.634;-0.946;2024-02-04T00:10:02;21.10;49.90
56172;DHT22;42052;41.634;-0.946;2024-02-04T00:12:28;21.10;49.70
56172;DHT22;42052;41.634;-0.946;2024-02-04T00:14:54;21.10;49.70
56172;DHT22;42052;41.634;-0.946;2024-02-04T00:17:20;21.10;49.70
56172;DHT22;42052;41.634;-0.946;2024-02-04T00:19:46;21.10;49.70
56172;DHT22;42052;41.634;-0.946;2024-02-04T00:22:12;21.10;49.60
56172;DHT22;42052;41.634;-0.946;2024-02-04T00:24:40;21.10;49.40
56172;DHT22;42052;41.634;-0.946;2024-02-04T00:27:05;21.10;49.50
56172;DHT22;42052;41.634;-0.946;2024-02-04T00:29:31;21.00;49.50
56172;DHT22;42052;41.634;-0.946;2024-02-04T00:31:59;21.00;49.60
56172;DHT22;42052;41.634;-0.946;2024-02-04T00:34:25;21.00;49.70
56172;DHT22;42052;41.634;-0.946;2024-02-04T00:36:51;21.00;49.30
56172;DHT22;42052;41.634;-0.946;2024-02-04T00:39:17;21.00;49.40
56172;DHT22;42052;41.634;-0.946;2024-02-04T00:41:43;21.00;49.20
56172;DHT22;42052;41.634;-0.946;2024-02-04T00:44:09;21.00;49.40
56172;DHT22;42052;41.634;-0.946;2024-02-04T00:46:35;21.00;49.10
56172;DHT22;42052;41.634;-0.946;2024-02-04T00:49:01;20.90;49.00
56172;DHT22;42052;41.634;-0.946;2024-02-04T00:51:27;21.00;49.10
56172;DHT22;42052;41.634;-0.946;2024-02-04T00:53:53;21.00;49.10
56172;DHT22;42052;41.634;-0.946;2024-02-04T00:56:20;20.90;49.20
56172;DHT22;42052;41.634;-0.946;2024-02-04T00:58:45;21.00;49.20
56172;DHT22;42052;41.634;-0.946;2024-02-04T01:01:11;20.90;49.10
56172;DHT22;42052;41.634;-0.946;2024-02-04T01:03:38;20.90;49.30
56172;DHT22;42052;41.634;-0.946;2024-02-04T01:06:04;20.90;49.30
56172;DHT22;42052;41.634;-0.946;2024-02-04T01:08:30;20.90;49.20
56172;DHT22;42052;41.634;-0.946;2024-02-04T01:10:56;20.90;49.00
56172;DHT22;42052;41.634;-0.946;2024-02-04T01:13:22;20.90;48.60
56172;DHT22;42052;41.634;-0.946;2024-02-04T01:15:48;20.90;48.40
56172;DHT22;42052;41.634;-0.946;2024-02-04T01:18:13;20.90;48.40
56172;DHT22;42052;41.634;-0.946;2024-02-04T01:20:39;20.90;48.80
56172;DHT22;42052;41.634;-0.946;2024-02-04T01:23:05;20.90;48.40
56172;DHT22;42052;41.634;-0.946;2024-02-04T01:25:31;20.90;48.50
56172;DHT22;42052;41.634;-0.946;2024-02-04T01:27:57;20.90;48.70
56172;DHT22;42052;41.634;-0.946;2024-02-04T01:30:23;20.90;48.90
56172;DHT22;42052;41.634;-0.946;2024-02-04T01:32:49;20.80;48.70
56172;DHT22;42052;41.634;-0.946;2024-02-04T01:35:15;20.80;48.90
56172;DHT22;42052;41.634;-0.946;2024-02-04T01:37:41;20.80;49.10
56172;DHT22;42052;41.634;-0.946;2024-02-04T01:40:09;20.80;48.90
56172;DHT22;42052;41.634;-0.946;2024-02-04T01:42:35;20.80;49.30
56172;DHT22;42052;41.634;-0.946;2024-02-04T01:45:01;20.80;49.00
56172;DHT22;42052;41.634;-0.946;2024-02-04T01:47:27;20.80;49.00
56172;DHT22;42052;41.634;-0.946;2024-02-04T01:49:53;20.80;49.00
56172;DHT22;42052;41.634;-0.946;2024-02-04T01:52:19;20.80;49.40
56172;DHT22;42052;41.634;-0.946;2024-02-04T01:54:45;20.80;49.00
56172;DHT22;42052;41.634;-0.946;2024-02-04T01:57:12;20.70;49.20
56172;DHT22;42052;41.634;-0.946;2024-02-04T01:59:39;20.80;48.90
56172;DHT22;42052;41.634;-0.946;2024-02-04T02:02:06;20.70;49.40
56172;DHT22;42052;41.634;-0.946;2024-02-04T02:04:32;20.70;49.10
56172;DHT22;42052;41.634;-0.946;2024-02-04T02:06:57;20.70;49.40
56172;DHT22;42052;41.634;-0.946;2024-02-04T02:09:25;20.70;49.50
56172;DHT22;42052;41.634;-0.946;2024-02-04T02:12:07;20.70;49.70
56172;DHT22;42052;41.634;-0.946;2024-02-04T02:14:39;20.70;49.10
56172;DHT22;42052;41.634;-0.946;2024-02-04T02:17:10;20.70;49.50
56172;DHT22;42052;41.634;-0.946;2024-02-04T02:20:02;20.60;49.70
56172;DHT22;42052;41.634;-0.946;2024-02-04T02:22:39;20.60;49.20
56172;DHT22;42052;41.634;-0.946;2024-02-04T02:25:13;20.60;49.10
56172;DHT22;42052;41.634;-0.946;2024-02-04T02:27:47;20.60;49.00
56172;DHT22;42052;41.634;-0.946;2024-02-04T02:30:19;20.60;49.50
56172;DHT22;42052;41.634;-0.946;2024-02-04T02:32:46;20.60;49.50
56172;DHT22;42052;41.634;-0.946;2024-02-04T02:35:17;20.60;49.60
56172;DHT22;42052;41.634;-0.946;2024-02-04T02:37:56;20.60;49.50
56172;DHT22;42052;41.634;-0.946;2024-02-04T02:43:11;20.60;49.10
56172;DHT22;42052;41.634;-0.946;2024-02-04T02:45:41;20.60;49.40
56172;DHT22;42052;41.634;-0.946;2024-02-04T02:48:07;20.60;49.30
56172;DHT22;42052;41.634;-0.946;2024-02-04T02:50:35;20.50;48.90
56172;DHT22;42052;41.634;-0.946;2024-02-04T02:53:01;20.50;50.50
56172;DHT22;42052;41.634;-0.946;2024-02-04T02:55:27;20.50;49.40
56172;DHT22;42052;41.634;-0.946;2024-02-04T02:57:53;20.50;49.40
56172;DHT22;42052;41.634;-0.946;2024-02-04T03:00:19;20.50;49.60
56172;DHT22;42052;41.634;-0.946;2024-02-04T03:02:45;20.50;49.00
56172;DHT22;42052;41.634;-0.946;2024-02-04T03:05:12;20.50;49.90
56172;DHT22;42052;41.634;-0.946;2024-02-04T03:07:38;20.50;49.80
56172;DHT22;42052;41.634;-0.946;2024-02-04T03:10:04;20.50;49.10
56172;DHT22;42052;41.634;-0.946;2024-02-04T03:12:30;20.50;49.30
56172;DHT22;42052;41.634;-0.946;2024-02-04T03:14:56;20.50;49.80
56172;DHT22;42052;41.634;-0.946;2024-02-04T03:17:22;20.50;49.50
56172;DHT22;42052;41.634;-0.946;2024-02-04T03:19:48;20.50;49.70
56172;DHT22;42052;41.634;-0.946;2024-02-04T03:22:15;20.50;49.10
56172;DHT22;42052;41.634;-0.946;2024-02-04T03:24:41;20.50;48.80
56172;DHT22;42052;41.634;-0.946;2024-02-04T03:27:07;20.50;49.50
56172;DHT22;42052;41.634;-0.946;2024-02-04T03:29:33;20.40;49.40
56172;DHT22;42052;41.634;-0.946;2024-02-04T03:31:59;20.50;49.30
56172;DHT22;42052;41.634;-0.946;2024-02-04T03:34:25;20.40;50.00
56172;DHT22;42052;41.634;-0.946;2024-02-04T03:36:50;20.40;49.70
56172;DHT22;42052;41.634;-0.946;2024-02-04T03:39:16;20.40;49.20
56172;DHT22;42052;41.634;-0.946;2024-02-04T03:41:42;20.40;49.40
56172;DHT22;42052;41.634;-0.946;2024-02-04T03:44:08;20.40;49.30
56172;DHT22;42052;41.634;-0.946;2024-02-04T03:46:34;20.40;48.50
56172;DHT22;42052;41.634;-0.946;2024-02-04T03:49:00;20.40;48.90
56172;DHT22;42052;41.634;-0.946;2024-02-04T03:51:25;20.40;49.10
56172;DHT22;42052;41.634;-0.946;2024-02-04T03:53:51;20.40;49.30
56172;DHT22;42052;41.634;-0.946;2024-02-04T03:56:18;20.40;49.50
56172;DHT22;42052;41.634;-0.946;2024-02-04T03:58:44;20.40;49.00
56172;DHT22;42052;41.634;-0.946;2024-02-04T04:01:10;20.30;49.30
56172;DHT22;42052;41.634;-0.946;2024-02-04T04:03:39;20.40;48.70
56172;DHT22;42052;41.634;-0.946;2024-02-04T04:06:06;20.40;49.30
56172;DHT22;42052;41.634;-0.946;2024-02-04T04:08:32;20.40;48.70
56172;DHT22;42052;41.634;-0.946;2024-02-04T04:10:58;20.30;49.00
56172;DHT22;42052;41.634;-0.946;2024-02-04T04:13:24;20.40;49.30
56172;DHT22;42052;41.634;-0.946;2024-02-04T04:15:51;20.30;49.50
56172;DHT22;42052;41.634;-0.946;2024-02-04T04:18:17;20.30;48.90
56172;DHT22;42052;41.634;-0.946;2024-02-04T04:20:42;20.30;49.10
56172;DHT22;42052;41.634;-0.946;2024-02-04T04:23:09;20.40;49.30
56172;DHT22;42052;41.634;-0.946;2024-02-04T04:25:34;20.30;48.70
56172;DHT22;42052;41.634;-0.946;2024-02-04T04:28:00;20.30;48.30
56172;DHT22;42052;41.634;-0.946;2024-02-04T04:30:26;20.30;48.60
56172;DHT22;42052;41.634;-0.946;2024-02-04T04:32:52;20.30;48.30
56172;DHT22;42052;41.634;-0.946;2024-02-04T04:35:18;20.30;48.60
56172;DHT22;42052;41.634;-0.946;2024-02-04T04:37:43;20.30;48.30
56172;DHT22;42052;41.634;-0.946;2024-02-04T04:40:10;20.30;48.50
56172;DHT22;42052;41.634;-0.946;2024-02-04T04:42:36;20.30;48.60
56172;DHT22;42052;41.634;-0.946;2024-02-04T04:45:02;20.30;49.20
56172;DHT22;42052;41.634;-0.946;2024-02-04T04:47:28;20.20;48.90
56172;DHT22;42052;41.634;-0.946;2024-02-04T04:49:54;20.20;48.80
56172;DHT22;42052;41.634;-0.946;2024-02-04T04:52:19;20.20;49.20
56172;DHT22;42052;41.634;-0.946;2024-02-04T04:54:45;20.20;48.80
56172;DHT22;42052;41.634;-0.946;2024-02-04T04:57:11;20.20;48.20
56172;DHT22;42052;41.634;-0.946;2024-02-04T04:59:37;20.20;48.70
56172;DHT22;42052;41.634;-0.946;2024-02-04T05:02:03;20.20;48.10
56172;DHT22;42052;41.634;-0.946;2024-02-04T05:04:30;20.20;48.50
56172;DHT22;42052;41.634;-0.946;2024-02-04T05:06:55;20.20;48.60
56172;DHT22;42052;41.634;-0.946;2024-02-04T05:09:22;20.20;48.10
56172;DHT22;42052;41.634;-0.946;2024-02-04T05:11:48;20.20;48.80
56172;DHT22;42052;41.634;-0.946;2024-02-04T05:14:14;20.20;48.50
56172;DHT22;42052;41.634;-0.946;2024-02-04T05:16:39;20.20;48.90
56172;DHT22;42052;41.634;-0.946;2024-02-04T05:19:05;20.20;48.70
56172;DHT22;42052;41.634;-0.946;2024-02-04T05:21:31;20.20;48.80
56172;DHT22;42052;41.634;-0.946;2024-02-04T05:23:57;20.20;48.00
56172;DHT22;42052;41.634;-0.946;2024-02-04T05:26:23;20.10;48.30
56172;DHT22;42052;41.634;-0.946;2024-02-04T05:28:49;20.20;48.90
56172;DHT22;42052;41.634;-0.946;2024-02-04T05:31:14;20.20;48.50
56172;DHT22;42052;41.634;-0.946;2024-02-04T05:33:40;20.20;48.60
56172;DHT22;42052;41.634;-0.946;2024-02-04T05:36:06;20.10;48.30
56172;DHT22;42052;41.634;-0.946;2024-02-04T05:38:32;20.10;48.10
56172;DHT22;42052;41.634;-0.946;2024-02-04T05:40:59;20.10;48.30
56172;DHT22;42052;41.634;-0.946;2024-02-04T05:43:25;20.10;49.10
56172;DHT22;42052;41.634;-0.946;2024-02-04T05:45:51;20.10;49.90
56172;DHT22;42052;41.634;-0.946;2024-02-04T05:48:17;20.20;49.60
56172;DHT22;42052;41.634;-0.946;2024-02-04T05:50:42;20.20;49.90
56172;DHT22;42052;41.634;-0.946;2024-02-04T05:53:09;20.20;50.50
56172;DHT22;42052;41.634;-0.946;2024-02-04T05:55:34;20.20;50.10
56172;DHT22;42052;41.634;-0.946;2024-02-04T05:58:00;20.20;49.90
56172;DHT22;42052;41.634;-0.946;2024-02-04T06:00:26;20.20;49.70
56172;DHT22;42052;41.634;-0.946;2024-02-04T06:02:52;20.20;50.00
56172;DHT22;42052;41.634;-0.946;2024-02-04T06:05:18;20.20;50.00
56172;DHT22;42052;41.634;-0.946;2024-02-04T06:07:44;20.20;50.00
56172;DHT22;42052;41.634;-0.946;2024-02-04T06:10:10;20.20;49.60
56172;DHT22;42052;41.634;-0.946;2024-02-04T06:12:36;20.30;49.80
56172;DHT22;42052;41.634;-0.946;2024-02-04T06:15:03;20.30;50.00
56172;DHT22;42052;41.634;-0.946;2024-02-04T06:17:29;20.30;49.70
56172;DHT22;42052;41.634;-0.946;2024-02-04T06:19:55;20.30;49.50
56172;DHT22;42052;41.634;-0.946;2024-02-04T06:22:22;20.30;49.30
56172;DHT22;42052;41.634;-0.946;2024-02-04T06:24:48;20.40;49.30
56172;DHT22;42052;41.634;-0.946;2024-02-04T06:27:15;20.40;49.40
56172;DHT22;42052;41.634;-0.946;2024-02-04T06:29:41;20.40;49.30
56172;DHT22;42052;41.634;-0.946;2024-02-04T06:32:07;20.40;49.30
56172;DHT22;42052;41.634;-0.946;2024-02-04T06:34:33;20.30;49.30
56172;DHT22;42052;41.634;-0.946;2024-02-04T06:36:58;20.40;49.10
56172;DHT22;42052;41.634;-0.946;2024-02-04T06:39:25;20.40;49.30
56172;DHT22;42052;41.634;-0.946;2024-02-04T06:41:51;20.40;49.00
56172;DHT22;42052;41.634;-0.946;2024-02-04T06:44:17;20.40;48.80
56172;DHT22;42052;41.634;-0.946;2024-02-04T06:46:43;20.40;49.60
56172;DHT22;42052;41.634;-0.946;2024-02-04T06:49:08;20.40;48.90
56172;DHT22;42052;41.634;-0.946;2024-02-04T06:51:34;20.40;49.70
56172;DHT22;42052;41.634;-0.946;2024-02-04T06:54:00;20.40;48.90
56172;DHT22;42052;41.634;-0.946;2024-02-04T06:56:26;20.40;48.60
56172;DHT22;42052;41.634;-0.946;2024-02-04T06:58:52;20.50;48.50
56172;DHT22;42052;41.634;-0.946;2024-02-04T07:01:18;20.50;48.40
56172;DHT22;42052;41.634;-0.946;2024-02-04T07:03:44;20.50;48.30
56172;DHT22;42052;41.634;-0.946;2024-02-04T07:06:10;20.50;48.30
56172;DHT22;42052;41.634;-0.946;2024-02-04T07:08:36;20.50;48.10
56172;DHT22;42052;41.634;-0.946;2024-02-04T07:11:02;20.50;48.10
56172;DHT22;42052;41.634;-0.946;2024-02-04T07:13:29;20.50;47.90
56172;DHT22;42052;41.634;-0.946;2024-02-04T07:15:55;20.50;47.90
56172;DHT22;42052;41.634;-0.946;2024-02-04T07:18:20;20.50;47.90
56172;DHT22;42052;41.634;-0.946;2024-02-04T07:20:48;20.60;48.00
56172;DHT22;42052;41.634;-0.946;2024-02-04T07:23:13;20.50;48.00
56172;DHT22;42052;41.634;-0.946;2024-02-04T07:25:39;20.50;48.00
56172;DHT22;42052;41.634;-0.946;2024-02-04T07:28:05;20.50;48.00
56172;DHT22;42052;41.634;-0.946;2024-02-04T07:30:31;20.50;48.00
56172;DHT22;42052;41.634;-0.946;2024-02-04T07:32:57;20.60;47.90
56172;DHT22;42052;41.634;-0.946;2024-02-04T07:35:23;20.50;47.90
56172;DHT22;42052;41.634;-0.946;2024-02-04T07:37:49;20.50;47.90
56172;DHT22;42052;41.634;-0.946;2024-02-04T07:40:15;20.50;47.80
56172;DHT22;42052;41.634;-0.946;2024-02-04T07:42:41;20.50;47.70
56172;DHT22;42052;41.634;-0.946;2024-02-04T07:45:08;20.50;47.60
56172;DHT22;42052;41.634;-0.946;2024-02-04T07:47:35;20.50;47.40
56172;DHT22;42052;41.634;-0.946;2024-02-04T07:50:01;20.50;47.40
56172;DHT22;42052;41.634;-0.946;2024-02-04T07:52:27;20.50;47.40
56172;DHT22;42052;41.634;-0.946;2024-02-04T07:54:53;20.50;47.50
56172;DHT22;42052;41.634;-0.946;2024-02-04T07:57:18;20.50;47.80
56172;DHT22;42052;41.634;-0.946;2024-02-04T07:59:44;20.50;47.90
56172;DHT22;42052;41.634;-0.946;2024-02-04T08:02:10;20.50;48.60
56172;DHT22;42052;41.634;-0.946;2024-02-04T08:04:36;20.50;47.90
56172;DHT22;42052;41.634;-0.946;2024-02-04T08:07:02;20.60;47.60
56172;DHT22;42052;41.634;-0.946;2024-02-04T08:09:28;20.60;47.50
56172;DHT22;42052;41.634;-0.946;2024-02-04T08:11:54;20.60;47.60
56172;DHT22;42052;41.634;-0.946;2024-02-04T08:14:20;20.60;47.50
56172;DHT22;42052;41.634;-0.946;2024-02-04T08:16:45;20.60;47.60
56172;DHT22;42052;41.634;-0.946;2024-02-04T08:19:12;20.60;47.50
56172;DHT22;42052;41.634;-0.946;2024-02-04T08:21:39;20.60;47.50
56172;DHT22;42052;41.634;-0.946;2024-02-04T08:24:05;20.60;47.30
56172;DHT22;42052;41.634;-0.946;2024-02-04T08:26:31;20.60;47.40
56172;DHT22;42052;41.634;-0.946;2024-02-04T08:28:57;20.60;47.40
56172;DHT22;42052;41.634;-0.946;2024-02-04T08:31:23;20.60;47.40
56172;DHT22;42052;41.634;-0.946;2024-02-04T08:33:49;20.60;48.00
56172;DHT22;42052;41.634;-0.946;2024-02-04T08:36:15;20.60;47.50
56172;DHT22;42052;41.634;-0.946;2024-02-04T08:38:41;20.60;47.40
56172;DHT22;42052;41.634;-0.946;2024-02-04T08:41:07;20.60;47.30
56172;DHT22;42052;41.634;-0.946;2024-02-04T08:43:33;20.60;47.20
56172;DHT22;42052;41.634;-0.946;2024-02-04T08:45:58;20.60;47.20
56172;DHT22;42052;41.634;-0.946;2024-02-04T08:48:24;20.60;47.10
56172;DHT22;42052;41.634;-0.946;2024-02-04T08:50:50;20.60;47.10
56172;DHT22;42052;41.634;-0.946;2024-02-04T08:53:16;20.70;47.20
56172;DHT22;42052;41.634;-0.946;2024-02-04T08:55:42;20.60;46.70
56172;DHT22;42052;41.634;-0.946;2024-02-04T08:58:08;20.60;46.90
56172;DHT22;42052;41.634;-0.946;2024-02-04T09:00:33;20.60;46.90
56172;DHT22;42052;41.634;-0.946;2024-02-04T09:02:59;20.60;46.90
56172;DHT22;42052;41.634;-0.946;2024-02-04T09:05:25;20.60;47.00
56172;DHT22;42052;41.634;-0.946;2024-02-04T09:07:51;20.60;46.90
56172;DHT22;42052;41.634;-0.946;2024-02-04T09:10:17;20.60;46.90
56172;DHT22;42052;41.634;-0.946;2024-02-04T09:12:43;20.60;47.00
56172;DHT22;42052;41.634;-0.946;2024-02-04T09:15:09;20.70;47.00
56172;DHT22;42052;41.634;-0.946;2024-02-04T09:17:35;20.60;46.80
56172;DHT22;42052;41.634;-0.946;2024-02-04T09:20:01;20.60;46.80
56172;DHT22;42052;41.634;-0.946;2024-02-04T09:22:28;20.70;46.70
56172;DHT22;42052;41.634;-0.946;2024-02-04T09:24:54;20.60;46.60
56172;DHT22;42052;41.634;-0.946;2024-02-04T09:27:20;20.60;46.50
56172;DHT22;42052;41.634;-0.946;2024-02-04T09:29:46;20.60;46.50
56172;DHT22;42052;41.634;-0.946;2024-02-04T09:32:14;20.60;46.60
56172;DHT22;42052;41.634;-0.946;2024-02-04T09:34:40;20.60;46.70
56172;DHT22;42052;41.634;-0.946;2024-02-04T09:37:06;20.70;46.70
56172;DHT22;42052;41.634;-0.946;2024-02-04T09:39:32;20.70;46.90
56172;DHT22;42052;41.634;-0.946;2024-02-04T09:41:58;20.70;46.70
56172;DHT22;42052;41.634;-0.946;2024-02-04T09:44:25;20.70;46.70
56172;DHT22;42052;41.634;-0.946;2024-02-04T09:46:51;20.70;46.60
56172;DHT22;42052;41.634;-0.946;2024-02-04T09:49:17;20.70;46.60
56172;DHT22;42052;41.634;-0.946;2024-02-04T09:51:44;20.70;46.50
56172;DHT22;42052;41.634;-0.946;2024-02-04T09:54:11;20.70;46.50
56172;DHT22;42052;41.634;-0.946;2024-02-04T09:56:38;20.70;46.40
56172;DHT22;42052;41.634;-0.946;2024-02-04T09:59:05;20.70;46.40
56172;DHT22;42052;41.634;-0.946;2024-02-04T10:01:32;20.70;46.40
56172;DHT22;42052;41.634;-0.946;2024-02-04T10:03:58;20.70;46.40
56172;DHT22;42052;41.634;-0.946;2024-02-04T10:06:24;20.70;46.30
56172;DHT22;42052;41.634;-0.946;2024-02-04T10:08:50;20.70;46.30
56172;DHT22;42052;41.634;-0.946;2024-02-04T10:11:16;20.70;46.30
56172;DHT22;42052;41.634;-0.946;2024-02-04T10:13:49;20.70;46.30
56172;DHT22;42052;41.634;-0.946;2024-02-04T10:16:18;20.70;46.40
56172;DHT22;42052;41.634;-0.946;2024-02-04T10:18:45;20.70;46.20
56172;DHT22;42052;41.634;-0.946;2024-02-04T10:21:18;20.70;46.10
56172;DHT22;42052;41.634;-0.946;2024-02-04T10:23:49;20.70;46.10
56172;DHT22;42052;41.634;-0.946;2024-02-04T10:26:18;20.70;46.00
56172;DHT22;42052;41.634;-0.946;2024-02-04T10:28:48;20.70;46.00
56172;DHT22;42052;41.634;-0.946;2024-02-04T10:31:14;20.70;45.90
56172;DHT22;42052;41.634;-0.946;2024-02-04T10:33:40;20.70;45.90
56172;DHT22;42052;41.634;-0.946;2024-02-04T10:36:06;20.80;45.90
56172;DHT22;42052;41.634;-0.946;2024-02-04T10:38:33;20.70;45.80
56172;DHT22;42052;41.634;-0.946;2024-02-04T10:41:00;20.70;45.80
56172;DHT22;42052;41.634;-0.946;2024-02-04T10:43:32;20.70;45.80
56172;DHT22;42052;41.634;-0.946;2024-02-04T10:46:22;20.70;45.70
56172;DHT22;42052;41.634;-0.946;2024-02-04T10:48:54;20.80;45.80
56172;DHT22;42052;41.634;-0.946;2024-02-04T10:51:25;20.70;45.80
56172;DHT22;42052;41.634;-0.946;2024-02-04T10:53:55;20.70;45.70
56172;DHT22;42052;41.634;-0.946;2024-02-04T10:56:28;20.80;46.40
56172;DHT22;42052;41.634;-0.946;2024-02-04T10:58:55;20.70;45.70
56172;DHT22;42052;41.634;-0.946;2024-02-04T11:01:23;20.70;45.60
56172;DHT22;42052;41.634;-0.946;2024-02-04T11:03:50;20.70;45.50
56172;DHT22;42052;41.634;-0.946;2024-02-04T11:06:18;20.70;45.50
56172;DHT22;42052;41.634;-0.946;2024-02-04T11:08:46;20.70;45.60
56172;DHT22;42052;41.634;-0.946;2024-02-04T11:11:12;20.80;45.60
56172;DHT22;42052;41.634;-0.946;2024-02-04T11:13:40;20.80;45.50
56172;DHT22;42052;41.634;-0.946;2024-02-04T11:16:18;20.70;45.50
56172;DHT22;42052;41.634;-0.946;2024-02-04T11:27:11;20.70;45.50
56172;DHT22;42052;41.634;-0.946;2024-02-04T11:29:37;20.80;45.50
56172;DHT22;42052;41.634;-0.946;2024-02-04T11:32:04;20.80;45.40
56172;DHT22;42052;41.634;-0.946;2024-02-04T11:34:30;20.80;45.40
56172;DHT22;42052;41.634;-0.946;2024-02-04T11:36:56;20.70;45.40
56172;DHT22;42052;41.634;-0.946;2024-02-04T11:39:24;20.80;45.60
56172;DHT22;42052;41.634;-0.946;2024-02-04T11:41:51;20.80;45.40
56172;DHT22;42052;41.634;-0.946;2024-02-04T11:44:21;20.80;45.60
56172;DHT22;42052;41.634;-0.946;2024-02-04T11:46:48;20.80;45.40
56172;DHT22;42052;41.634;-0.946;2024-02-04T11:49:20;20.80;45.50
56172;DHT22;42052;41.634;-0.946;2024-02-04T11:51:51;20.80;45.50
56172;DHT22;42052;41.634;-0.946;2024-02-04T11:54:19;20.80;45.40
56172;DHT22;42052;41.634;-0.946;2024-02-04T11:56:48;20.80;45.40
56172;DHT22;42052;41.634;-0.946;2024-02-04T11:59:24;20.80;45.40
56172;DHT22;42052;41.634;-0.946;2024-02-04T12:01:55;20.80;45.40
56172;DHT22;42052;41.634;-0.946;2024-02-04T12:04:22;20.80;45.40
56172;DHT22;42052;41.634;-0.946;2024-02-04T12:06:48;20.80;45.30
56172;DHT22;42052;41.634;-0.946;2024-02-04T12:09:17;20.80;45.30
56172;DHT22;42052;41.634;-0.946;2024-02-04T12:11:48;20.80;45.10
56172;DHT22;42052;41.634;-0.946;2024-02-04T12:14:22;20.80;45.20
56172;DHT22;42052;41.634;-0.946;2024-02-04T12:16:48;20.80;45.40
56172;DHT22;42052;41.634;-0.946;2024-02-04T12:19:14;20.80;45.40
56172;DHT22;42052;41.634;-0.946;2024-02-04T12:21:40;20.80;45.40
56172;DHT22;42052;41.634;-0.946;2024-02-04T12:24:07;20.80;45.40
56172;DHT22;42052;41.634;-0.946;2024-02-04T12:26:33;20.80;45.40
56172;DHT22;42052;41.634;-0.946;2024-02-04T12:28:59;20.80;45.40
56172;DHT22;42052;41.634;-0.946;2024-02-04T12:31:26;20.80;45.40
56172;DHT22;42052;41.634;-0.946;2024-02-04T12:33:56;20.80;45.20
56172;DHT22;42052;41.634;-0.946;2024-02-04T12:36:29;20.80;45.40
56172;DHT22;42052;41.634;-0.946;2024-02-04T12:38:56;20.90;45.40
56172;DHT22;42052;41.634;-0.946;2024-02-04T12:41:23;20.90;45.40
56172;DHT22;42052;41.634;-0.946;2024-02-04T12:43:54;20.80;45.30
56172;DHT22;42052;41.634;-0.946;2024-02-04T12:46:21;20.90;45.40
56172;DHT22;42052;41.634;-0.946;2024-02-04T12:48:54;20.90;45.30
56172;DHT22;42052;41.634;-0.946;2024-02-04T12:51:28;20.90;45.30
56172;DHT22;42052;41.634;-0.946;2024-02-04T12:54:11;20.90;45.30
56172;DHT22;42052;41.634;-0.946;2024-02-04T12:56:52;20.90;45.30
56172;DHT22;42052;41.634;-0.946;2024-02-04T12:59:25;20.90;45.30
56172;DHT22;42052;41.634;-0.946;2024-02-04T13:01:54;20.90;45.40
56172;DHT22;42052;41.634;-0.946;2024-02-04T13:04:21;20.90;45.30
56172;DHT22;42052;41.634;-0.946;2024-02-04T13:06:47;20.90;45.40
56172;DHT22;42052;41.634;-0.946;2024-02-04T13:09:17;20.80;45.40
56172;DHT22;42052;41.634;-0.946;2024-02-04T13:11:43;20.90;45.40
56172;DHT22;42052;41.634;-0.946;2024-02-04T13:14:10;20.90;45.40
56172;DHT22;42052;41.634;-0.946;2024-02-04T13:16:37;20.90;45.40
56172;DHT22;42052;41.634;-0.946;2024-02-04T13:19:04;20.90;45.30
56172;DHT22;42052;41.634;-0.946;2024-02-04T13:21:30;20.80;45.30
56172;DHT22;42052;41.634;-0.946;2024-02-04T13:23:56;20.90;45.40
56172;DHT22;42052;41.634;-0.946;2024-02-04T13:26:22;20.80;45.30
56172;DHT22;42052;41.634;-0.946;2024-02-04T13:28:48;20.90;45.30
56172;DHT22;42052;41.634;-0.946;2024-02-04T13:31:14;20.90;45.20
56172;DHT22;42052;41.634;-0.946;2024-02-04T13:33:41;20.80;45.10
56172;DHT22;42052;41.634;-0.946;2024-02-04T13:36:07;20.80;45.10
56172;DHT22;42052;41.634;-0.946;2024-02-04T13:38:34;20.90;45.20
56172;DHT22;42052;41.634;-0.946;2024-02-04T13:41:01;20.80;45.20
56172;DHT22;42052;41.634;-0.946;2024-02-04T13:43:27;20.90;45.20
56172;DHT22;42052;41.634;-0.946;2024-02-04T13:45:53;20.90;45.10
56172;DHT22;42052;41.634;-0.946;2024-02-04T13:48:19;20.90;45.00
56172;DHT22;42052;41.634;-0.946;2024-02-04T13:50:48;20.90;45.00
56172;DHT22;42052;41.634;-0.946;2024-02-04T13:53:14;20.90;44.90
56172;DHT22;42052;41.634;-0.946;2024-02-04T13:55:40;20.90;44.90
56172;DHT22;42052;41.634;-0.946;2024-02-04T13:58:05;20.90;44.90
56172;DHT22;42052;41.634;-0.946;2024-02-04T14:00:31;20.90;44.90
56172;DHT22;42052;41.634;-0.946;2024-02-04T14:02:57;20.90;44.90
56172;DHT22;42052;41.634;-0.946;2024-02-04T14:05:23;20.90;44.90
56172;DHT22;42052;41.634;-0.946;2024-02-04T14:07:51;20.90;44.90
56172;DHT22;42052;41.634;-0.946;2024-02-04T14:10:17;20.90;45.00
56172;DHT22;42052;41.634;-0.946;2024-02-04T14:12:44;20.80;45.00
56172;DHT22;42052;41.634;-0.946;2024-02-04T14:15:11;20.80;45.10
56172;DHT22;42052;41.634;-0.946;2024-02-04T14:17:38;20.80;45.10
56172;DHT22;42052;41.634;-0.946;2024-02-04T14:20:06;20.80;45.00
56172;DHT22;42052;41.634;-0.946;2024-02-04T14:22:32;20.80;45.00
56172;DHT22;42052;41.634;-0.946;2024-02-04T14:24:58;20.80;44.90
56172;DHT22;42052;41.634;-0.946;2024-02-04T14:27:25;20.90;44.90
56172;DHT22;42052;41.634;-0.946;2024-02-04T14:29:51;20.90;44.80
56172;DHT22;42052;41.634;-0.946;2024-02-04T14:32:19;20.90;44.80
56172;DHT22;42052;41.634;-0.946;2024-02-04T14:34:45;20.90;44.80
56172;DHT22;42052;41.634;-0.946;2024-02-04T14:37:11;20.90;44.80
56172;DHT22;42052;41.634;-0.946;2024-02-04T14:39:37;20.90;44.90
56172;DHT22;42052;41.634;-0.946;2024-02-04T14:42:03;20.90;44.90
56172;DHT22;42052;41.634;-0.946;2024-02-04T14:44:29;20.90;45.00
56172;DHT22;42052;41.634;-0.946;2024-02-04T14:46:55;20.90;44.90
56172;DHT22;42052;41.634;-0.946;2024-02-04T14:49:21;20.90;44.80
56172;DHT22;42052;41.634;-0.946;2024-02-04T14:51:47;20.90;44.80
56172;DHT22;42052;41.634;-0.946;2024-02-04T14:54:13;20.90;44.90
56172;DHT22;42052;41.634;-0.946;2024-02-04T14:56:40;20.90;44.90
56172;DHT22;42052;41.634;-0.946;2024-02-04T14:59:08;20.90;44.90
56172;DHT22;42052;41.634;-0.946;2024-02-04T15:01:36;20.90;44.90
56172;DHT22;42052;41.634;-0.946;2024-02-04T15:04:02;20.90;44.90
56172;DHT22;42052;41.634;-0.946;2024-02-04T15:06:28;20.90;45.00
56172;DHT22;42052;41.634;-0.946;2024-02-04T15:09:00;20.90;45.00
56172;DHT22;42052;41.634;-0.946;2024-02-04T15:11:26;20.90;45.00
56172;DHT22;42052;41.634;-0.946;2024-02-04T15:13:55;20.80;44.90
56172;DHT22;42052;41.634;-0.946;2024-02-04T15:16:22;20.90;44.90
56172;DHT22;42052;41.634;-0.946;2024-02-04T15:18:48;20.90;44.80
56172;DHT22;42052;41.634;-0.946;2024-02-04T15:21:14;20.90;44.80
56172;DHT22;42052;41.634;-0.946;2024-02-04T15:23:41;20.90;44.80